Погода Опельченна 2 недели

Кампече, Мексика

21 февраля-05 марта
  • 21февраля
    Сегодня
    +13°
    +29°
    Ясно и безоблачно
    ВремяПогодаТемператураВлажностьДавлениеВетер, м/сВероятность осадков
    00:00Ясно и безоблачно+17°C80 %761 мм2.9 м/с2 %
    03:00Ясно и безоблачно+15°C93 %759 мм2.4 м/с2 %
    06:00Ясно и безоблачно+14°C97 %760 мм2.4 м/с2 %
    09:00Ясно и безоблачно+22°C63 %761 мм2.8 м/с2 %
    12:00Ясно и безоблачно+28°C37 %759 мм1.6 м/с2 %
    15:00Ясно и безоблачно+30°C31 %757 мм1.7 м/с2 %
    18:00Ясно и безоблачно+24°C38 %757 мм2.5 м/с2 %
    21:00Ясно и безоблачно+20°C50 %758 мм2.8 м/с2 %
  • 22февраля
    Четверг
    +15°
    +31°
    Ясно и безоблачно
    ВремяПогодаТемператураВлажностьДавлениеВетер, м/сВероятность осадков
    00:00Ясно и безоблачно+17°C64 %757 мм2.8 м/с2 %
    03:00Ясно и безоблачно+15°C79 %756 мм2.6 м/с2 %
    06:00Ясно и безоблачно+14°C91 %756 мм2.5 м/с2 %
    09:00Ясно и безоблачно+22°C65 %757 мм2.8 м/с2 %
    12:00Ясно и безоблачно+29°C39 %755 мм3.2 м/с2 %
    15:00Ясно и безоблачно+31°C35 %752 мм3.0 м/с2 %
    18:00Ясно и безоблачно+26°C49 %752 мм2.5 м/с2 %
    21:00Ясно и безоблачно+22°C63 %753 мм3.4 м/с2 %
  • 23февраля
    Пятница
    +16°
    +33°
    Ясно и безоблачно
    ВремяПогодаТемператураВлажностьДавлениеВетер, м/сВероятность осадков
    00:00Ясно и безоблачно+19°C72 %752 мм3.7 м/с2 %
    03:00Ясно и безоблачно+17°C78 %751 мм3.2 м/с2 %
    06:00Ясно и безоблачно+15°C87 %752 мм2.7 м/с2 %
    09:00Ясно и безоблачно+23°C61 %754 мм2.7 м/с2 %
    12:00Ясно и безоблачно+31°C36 %753 мм0.8 м/с2 %
    15:00Ясно и безоблачно+33°C29 %751 мм1.1 м/с2 %
    18:00Ясно и безоблачно+28°C42 %752 мм2.6 м/с2 %
    21:00Ясно и безоблачно+23°C58 %754 мм3.0 м/с2 %
  • 24февраля
    Суббота
    +15°
    +32°
    Практически безоблачно
    ВремяПогодаТемператураВлажностьДавлениеВетер, м/сВероятность осадков
    00:00Ясно и безоблачно+19°C78 %755 мм2.3 м/с2 %
    03:00Ясно и безоблачно+17°C95 %754 мм2.3 м/с2 %
    06:00Ясно и безоблачно+16°C98 %755 мм1.5 м/с2 %
    09:00Ясно и безоблачно+23°C68 %757 мм2.2 м/с3 %
    12:00Облачно с прояснениями+28°C47 %757 мм2.6 м/с2 %
    15:00Практически безоблачно+31°C35 %755 мм2.1 м/с2 %
    18:00Практически безоблачно+26°C58 %756 мм4.2 м/с2 %
    21:00Ясно и безоблачно+23°C65 %758 мм3.3 м/с2 %
  • 25февраля
    Воскресенье
    +14°
    +31°
    Ясно и безоблачно
    ВремяПогодаТемператураВлажностьДавлениеВетер, м/сВероятность осадков
    00:00Ясно и безоблачно+19°C77 %758 мм2.2 м/с2 %
    03:00Ясно и безоблачно+17°C82 %757 мм2.5 м/с2 %
    06:00Ясно и безоблачно+17°C89 %758 мм2.5 м/с2 %
    09:00Ясно и безоблачно+23°C66 %760 мм3.0 м/с2 %
    12:00Ясно и безоблачно+30°C41 %758 мм2.2 м/с2 %
    15:00Ясно и безоблачно+31°C34 %756 мм2.0 м/с2 %
    18:00Ясно и безоблачно+27°C44 %756 мм2.6 м/с2 %
    21:00Ясно и безоблачно+23°C50 %758 мм3.6 м/с2 %
Мы используем cookies
Соглашаюсь